createdAt,value
2022-10-13T00:00:58.147Z,16.28
2022-10-13T00:03:25.203Z,16.28
2022-10-13T00:05:52.200Z,16.27
2022-10-13T00:08:21.450Z,16.28
2022-10-13T00:10:49.971Z,16.26
2022-10-13T00:13:17.078Z,16.25
2022-10-13T00:15:45.647Z,16.26
2022-10-13T00:18:12.865Z,16.24
2022-10-13T00:20:44.416Z,16.25
2022-10-13T00:23:11.469Z,16.24
2022-10-13T00:25:46.386Z,16.24
2022-10-13T00:28:13.605Z,16.23
2022-10-13T00:30:41.456Z,16.20
2022-10-13T00:33:08.565Z,16.18
2022-10-13T00:35:37.748Z,16.19
2022-10-13T00:38:04.749Z,16.20
2022-10-13T00:40:31.741Z,16.20
2022-10-13T00:42:59.322Z,16.21
2022-10-13T00:45:32.766Z,16.19
2022-10-13T00:48:01.469Z,16.18
2022-10-13T00:50:31.774Z,16.17
2022-10-13T00:52:58.780Z,16.16
2022-10-13T00:55:27.052Z,16.15
2022-10-13T00:57:55.416Z,16.16
2022-10-13T01:00:25.632Z,16.14
2022-10-13T01:02:52.646Z,16.13
2022-10-13T01:05:20.390Z,16.12
2022-10-13T01:08:04.258Z,16.12
2022-10-13T01:11:19.022Z,16.11
2022-10-13T01:14:12.862Z,16.11
2022-10-13T01:17:17.921Z,16.10
2022-10-13T01:20:25.405Z,16.08
2022-10-13T01:23:48.647Z,16.08
2022-10-13T01:26:39.382Z,16.06
2022-10-13T01:29:24.915Z,16.06
2022-10-13T01:32:12.472Z,16.06
2022-10-13T01:35:08.709Z,16.06
2022-10-13T01:37:38.330Z,16.05
2022-10-13T01:40:10.044Z,16.05
2022-10-13T01:42:39.708Z,16.05
2022-10-13T01:45:07.010Z,16.04
2022-10-13T01:47:34.186Z,16.04
2022-10-13T01:50:01.216Z,16.05
2022-10-13T01:52:35.592Z,16.04
2022-10-13T01:55:06.957Z,16.04
2022-10-13T01:57:36.524Z,16.03
2022-10-13T02:00:16.694Z,16.02
2022-10-13T02:03:07.897Z,16.02
2022-10-13T02:05:56.233Z,16.02
2022-10-13T02:08:31.049Z,16.01
2022-10-13T02:11:06.208Z,16.01
2022-10-13T02:13:33.250Z,16.00
2022-10-13T02:16:01.071Z,15.98
2022-10-13T02:18:35.006Z,15.97
2022-10-13T02:21:02.205Z,15.98
2022-10-13T02:23:29.397Z,15.97
2022-10-13T02:25:56.981Z,15.97
2022-10-13T02:28:24.053Z,15.97
2022-10-13T02:30:51.107Z,15.96
2022-10-13T02:33:18.230Z,15.96
2022-10-13T02:35:45.247Z,15.95
2022-10-13T02:38:12.330Z,15.96
2022-10-13T02:40:39.323Z,15.95
2022-10-13T02:43:06.313Z,15.94
2022-10-13T02:45:33.324Z,15.94
2022-10-13T02:48:00.367Z,15.94
2022-10-13T02:50:27.617Z,15.93
2022-10-13T02:52:54.659Z,15.92
2022-10-13T02:55:21.630Z,15.92
2022-10-13T02:57:48.600Z,15.93
2022-10-13T03:00:16.047Z,15.92
2022-10-13T03:02:43.236Z,15.89
2022-10-13T03:05:10.462Z,15.89
2022-10-13T03:07:37.503Z,15.89
2022-10-13T03:10:05.359Z,15.89
2022-10-13T03:12:32.444Z,15.89
2022-10-13T03:14:59.404Z,15.89
2022-10-13T03:17:26.440Z,15.87
2022-10-13T03:19:53.402Z,15.88
2022-10-13T03:22:20.614Z,15.87
2022-10-13T03:24:47.737Z,15.86
2022-10-13T03:27:14.717Z,15.87
2022-10-13T03:29:41.727Z,15.87
2022-10-13T03:32:08.746Z,15.86
2022-10-13T03:34:35.721Z,15.85
2022-10-13T03:37:02.714Z,15.86
2022-10-13T03:39:29.676Z,15.85
2022-10-13T03:41:56.869Z,15.85
2022-10-13T03:44:23.874Z,15.84
2022-10-13T03:46:50.897Z,15.84
2022-10-13T03:49:19.032Z,15.82
2022-10-13T03:51:46.310Z,15.81
2022-10-13T03:54:13.316Z,15.81
2022-10-13T03:56:40.500Z,15.79
2022-10-13T03:59:07.548Z,15.80
2022-10-13T04:01:34.653Z,15.79
2022-10-13T04:04:04.574Z,15.79
2022-10-13T04:06:32.073Z,15.78
2022-10-13T04:08:59.287Z,15.78
2022-10-13T04:11:26.230Z,15.77
2022-10-13T04:13:53.526Z,15.78
2022-10-13T04:16:24.097Z,15.77
2022-10-13T04:18:53.041Z,15.76
2022-10-13T04:21:20.057Z,15.77
2022-10-13T04:23:47.072Z,15.77
2022-10-13T04:26:18.729Z,15.76
2022-10-13T04:28:46.974Z,15.76
2022-10-13T04:31:13.975Z,15.75
2022-10-13T04:33:41.124Z,15.74
2022-10-13T04:36:09.319Z,15.74
2022-10-13T04:38:36.299Z,15.73
2022-10-13T04:41:06.654Z,15.72
2022-10-13T04:43:33.751Z,15.72
2022-10-13T04:46:04.628Z,15.71
2022-10-13T04:48:31.761Z,15.70
2022-10-13T04:51:18.079Z,15.70
2022-10-13T04:53:45.136Z,15.69
2022-10-13T04:56:15.036Z,15.70
2022-10-13T04:58:42.515Z,15.70
2022-10-13T05:01:16.513Z,15.70
2022-10-13T05:03:47.413Z,15.70
2022-10-13T05:06:18.205Z,15.70
2022-10-13T05:08:45.303Z,15.70
2022-10-13T05:11:12.284Z,15.71
2022-10-13T05:13:39.381Z,15.69
2022-10-13T05:16:10.559Z,15.70
2022-10-13T05:18:37.839Z,15.69
2022-10-13T05:21:24.208Z,15.69
2022-10-13T05:23:54.566Z,15.68
2022-10-13T05:26:22.219Z,15.68
2022-10-13T05:28:49.534Z,15.67
2022-10-13T05:31:21.048Z,15.66
2022-10-13T05:33:48.321Z,15.67
2022-10-13T05:36:19.749Z,15.67
2022-10-13T05:38:49.613Z,15.65
2022-10-13T05:41:16.570Z,15.65
2022-10-13T05:43:43.589Z,15.62
2022-10-13T05:46:10.724Z,15.62
2022-10-13T05:48:37.958Z,15.63
2022-10-13T05:51:19.942Z,15.62
2022-10-13T05:53:56.809Z,15.64
2022-10-13T05:56:26.593Z,15.60
2022-10-13T05:58:55.944Z,15.63
2022-10-13T06:01:24.905Z,15.63
2022-10-13T06:03:53.080Z,15.63
2022-10-13T06:06:20.015Z,15.63
2022-10-13T06:08:47.050Z,15.63
2022-10-13T06:11:14.015Z,15.63
2022-10-13T06:13:41.058Z,15.63
2022-10-13T06:16:08.003Z,15.63
2022-10-13T06:18:35.010Z,15.61
2022-10-13T06:21:01.978Z,15.61
2022-10-13T06:23:29.013Z,15.60
2022-10-13T06:25:56.014Z,15.60
2022-10-13T06:28:23.036Z,15.60
2022-10-13T06:30:54.764Z,15.59
2022-10-13T06:33:22.482Z,15.60
2022-10-13T06:35:49.834Z,15.59
2022-10-13T06:38:16.895Z,15.59
2022-10-13T06:40:43.879Z,15.59
2022-10-13T06:43:10.977Z,15.59
2022-10-13T06:45:38.014Z,15.59
2022-10-13T06:48:05.437Z,15.60
2022-10-13T06:50:32.666Z,15.60
2022-10-13T06:52:59.758Z,15.59
2022-10-13T06:55:26.749Z,15.60
2022-10-13T06:57:53.699Z,15.61
2022-10-13T07:00:20.809Z,15.61
2022-10-13T07:02:50.951Z,15.61
2022-10-13T07:05:17.958Z,15.60
2022-10-13T07:07:44.927Z,15.61
2022-10-13T07:10:11.873Z,15.61
2022-10-13T07:12:38.877Z,15.61
2022-10-13T07:15:06.205Z,15.61
2022-10-13T07:17:33.188Z,15.61
2022-10-13T07:20:03.700Z,15.62
2022-10-13T07:22:34.129Z,15.62
2022-10-13T07:25:01.198Z,15.62
2022-10-13T07:27:28.148Z,15.62
2022-10-13T07:29:55.165Z,15.62
2022-10-13T07:32:22.205Z,15.61
2022-10-13T07:34:52.837Z,15.63
2022-10-13T07:37:20.074Z,15.63
2022-10-13T07:39:47.428Z,15.63
2022-10-13T07:42:14.404Z,15.62
2022-10-13T07:44:41.498Z,15.65
2022-10-13T07:47:08.608Z,15.66
2022-10-13T07:49:35.594Z,15.67
2022-10-13T07:52:02.681Z,15.67
2022-10-13T07:54:29.795Z,15.68
2022-10-13T07:56:56.960Z,15.68
2022-10-13T07:59:24.283Z,15.67
2022-10-13T08:01:51.853Z,15.69
2022-10-13T08:04:18.910Z,15.69
2022-10-13T08:06:45.972Z,15.68
2022-10-13T08:09:13.029Z,15.69
2022-10-13T08:11:40.039Z,15.69
2022-10-13T08:14:07.042Z,15.70
2022-10-13T08:16:34.093Z,15.71
2022-10-13T08:19:01.054Z,15.71
2022-10-13T08:21:53.281Z,15.71
2022-10-13T08:24:16.138Z,15.72
2022-10-13T08:26:44.236Z,15.72
2022-10-13T08:29:26.763Z,15.72
2022-10-13T08:31:54.210Z,15.74
2022-10-13T08:34:22.559Z,15.75
2022-10-13T08:36:53.358Z,15.75
2022-10-13T08:39:21.778Z,15.76
2022-10-13T08:41:48.749Z,15.77
2022-10-13T08:47:43.236Z,15.78
2022-10-13T08:50:19.067Z,15.79
2022-10-13T08:52:47.742Z,15.80
2022-10-13T08:55:40.708Z,15.83
2022-10-13T08:58:31.314Z,15.82
2022-10-13T09:01:05.396Z,15.84
2022-10-13T09:03:32.403Z,15.84
2022-10-13T09:06:17.861Z,15.85
2022-10-13T09:08:50.552Z,15.86
2022-10-13T09:11:17.558Z,15.87
2022-10-13T09:13:44.665Z,15.88
2022-10-13T09:16:11.637Z,15.88
2022-10-13T09:18:38.842Z,15.87
2022-10-13T09:21:17.948Z,15.89
2022-10-13T09:23:44.956Z,15.89
2022-10-13T09:26:23.910Z,15.91
2022-10-13T09:28:51.451Z,15.90
2022-10-13T09:31:25.216Z,15.92
2022-10-13T09:34:03.072Z,15.93
2022-10-13T09:36:31.512Z,15.94
2022-10-13T09:39:08.490Z,15.95
2022-10-13T09:41:35.865Z,15.95
2022-10-13T09:44:23.139Z,15.97
2022-10-13T09:46:56.058Z,15.97
2022-10-13T09:50:06.482Z,15.99
2022-10-13T09:52:34.924Z,15.99
2022-10-13T09:55:02.043Z,16.00
2022-10-13T09:57:46.050Z,16.02
2022-10-13T10:00:22.970Z,16.01
2022-10-13T10:03:01.097Z,16.02
2022-10-13T10:05:49.951Z,16.02
2022-10-13T10:09:01.504Z,16.03
2022-10-13T10:11:33.799Z,16.05
2022-10-13T10:14:05.543Z,16.07
2022-10-13T10:16:38.694Z,16.06
2022-10-13T10:19:11.590Z,16.07
2022-10-13T10:21:46.535Z,16.08
2022-10-13T10:24:27.419Z,16.08
2022-10-13T10:27:08.023Z,16.11
2022-10-13T10:29:49.507Z,16.12
2022-10-13T10:32:23.647Z,16.13
2022-10-13T10:34:57.597Z,16.15
2022-10-13T10:37:44.110Z,16.17
2022-10-13T10:40:16.973Z,16.18
2022-10-13T10:43:09.737Z,16.20
2022-10-13T10:45:39.066Z,16.20
2022-10-13T10:48:18.652Z,16.23
2022-10-13T10:50:45.635Z,16.22
2022-10-13T10:53:21.319Z,16.24
2022-10-13T10:55:57.552Z,16.26
2022-10-13T10:58:37.220Z,16.25
2022-10-13T11:01:22.177Z,16.26
2022-10-13T11:04:26.938Z,16.27
2022-10-13T11:06:53.907Z,16.28
2022-10-13T11:09:42.482Z,16.28
2022-10-13T11:12:21.752Z,16.30
2022-10-13T11:14:57.579Z,16.32
2022-10-13T11:17:34.491Z,16.32
2022-10-13T11:20:01.790Z,16.33
2022-10-13T11:22:29.921Z,16.34
2022-10-13T11:25:34.104Z,16.35
2022-10-13T11:28:01.095Z,16.37
2022-10-13T11:30:42.752Z,16.38
2022-10-13T11:33:40.508Z,16.40
2022-10-13T11:36:40.092Z,16.40
2022-10-13T11:39:28.753Z,16.42
2022-10-13T11:42:01.396Z,16.42
2022-10-13T11:44:47.035Z,16.44
2022-10-13T11:48:04.703Z,16.47
2022-10-13T11:51:06.788Z,16.48
2022-10-13T11:53:54.879Z,16.49
2022-10-13T11:56:48.442Z,16.50
2022-10-13T11:59:22.962Z,16.51
2022-10-13T12:01:59.956Z,16.52
2022-10-13T12:04:28.178Z,16.55
2022-10-13T12:07:06.231Z,16.55
2022-10-13T12:09:33.812Z,16.55
2022-10-13T12:12:19.865Z,16.56
2022-10-13T12:14:50.200Z,16.57
2022-10-13T12:17:24.320Z,16.59
2022-10-13T12:19:51.891Z,16.59
2022-10-13T12:22:19.054Z,16.58
2022-10-13T12:25:03.573Z,16.59
2022-10-13T12:27:34.768Z,16.58
2022-10-13T12:30:02.369Z,16.59
2022-10-13T12:32:31.257Z,16.60
2022-10-13T12:35:11.248Z,16.62
2022-10-13T12:37:38.536Z,16.62
2022-10-13T12:40:06.149Z,16.63
2022-10-13T12:42:33.953Z,16.63
2022-10-13T12:45:01.132Z,16.63
2022-10-13T12:47:46.206Z,16.65
2022-10-13T12:50:28.295Z,16.64
2022-10-13T12:53:13.378Z,16.67
2022-10-13T12:55:59.313Z,16.68
2022-10-13T12:58:31.083Z,16.69
2022-10-13T13:01:19.283Z,16.71
2022-10-13T13:03:46.270Z,16.72
2022-10-13T13:06:16.291Z,16.72
2022-10-13T13:08:43.491Z,16.74
2022-10-13T13:11:42.874Z,16.76
2022-10-13T13:14:45.662Z,16.76
2022-10-13T13:17:23.491Z,16.77
2022-10-13T13:20:34.153Z,16.79
2022-10-13T13:23:01.382Z,16.79
2022-10-13T13:25:28.407Z,16.82
2022-10-13T13:27:55.493Z,16.82
2022-10-13T13:30:23.720Z,16.83
2022-10-13T13:32:50.951Z,16.84
2022-10-13T13:35:17.930Z,16.86
2022-10-13T13:37:50.059Z,16.83
2022-10-13T13:40:23.316Z,16.89
2022-10-13T13:42:50.345Z,16.90
2022-10-13T13:45:18.656Z,16.92
2022-10-13T13:47:45.756Z,16.93
2022-10-13T13:50:25.785Z,16.94
2022-10-13T13:52:52.748Z,16.95
2022-10-13T13:55:19.802Z,16.95
2022-10-13T13:57:46.760Z,16.97
2022-10-13T14:00:14.309Z,16.99
2022-10-13T14:02:41.642Z,16.99
2022-10-13T14:05:08.949Z,17.00
2022-10-13T14:07:35.904Z,17.02
2022-10-13T14:10:02.946Z,17.03
2022-10-13T14:12:30.966Z,17.04
2022-10-13T14:14:58.744Z,17.05
2022-10-13T14:17:28.767Z,17.07
2022-10-13T14:19:55.788Z,17.06
2022-10-13T14:22:23.263Z,17.07
2022-10-13T14:24:50.692Z,17.08
2022-10-13T14:27:17.739Z,17.08
2022-10-13T14:29:44.727Z,17.09
2022-10-13T14:32:11.891Z,17.10
2022-10-13T14:34:38.877Z,17.11
2022-10-13T14:37:05.934Z,17.10
2022-10-13T14:39:33.007Z,17.10
2022-10-13T14:41:59.966Z,17.10
2022-10-13T14:44:26.978Z,17.12
2022-10-13T14:46:53.926Z,17.10
2022-10-13T14:49:20.907Z,17.12
2022-10-13T14:51:47.890Z,17.10
2022-10-13T14:54:14.883Z,17.10
2022-10-13T14:56:41.986Z,17.12
2022-10-13T14:59:09.643Z,17.10
2022-10-13T15:01:36.752Z,17.10
2022-10-13T15:04:03.893Z,17.08
2022-10-13T15:06:31.090Z,17.09
2022-10-13T15:08:58.271Z,17.07
2022-10-13T15:11:25.926Z,17.08
2022-10-13T15:13:52.898Z,17.06
2022-10-13T15:16:26.532Z,17.07
2022-10-13T15:18:53.575Z,17.06
2022-10-13T15:21:20.607Z,17.07
2022-10-13T15:23:47.703Z,17.07
2022-10-13T15:26:15.530Z,17.06
2022-10-13T15:28:44.598Z,17.06
2022-10-13T15:31:12.451Z,17.06
2022-10-13T15:33:40.548Z,17.04
2022-10-13T15:36:07.921Z,17.04
2022-10-13T15:38:34.848Z,17.04
2022-10-13T15:41:01.952Z,17.02
2022-10-13T15:43:28.977Z,17.03
2022-10-13T15:45:57.807Z,17.01
2022-10-13T15:48:24.842Z,17.01
2022-10-13T15:50:51.895Z,17.00
2022-10-13T15:53:20.379Z,17.00
2022-10-13T15:55:48.111Z,17.00
2022-10-13T15:58:15.126Z,16.98
2022-10-13T16:00:42.328Z,16.99
2022-10-13T16:03:16.957Z,16.97
2022-10-13T16:05:44.509Z,16.98
2022-10-13T16:08:11.660Z,16.96
2022-10-13T16:10:40.479Z,16.96
2022-10-13T16:13:08.231Z,16.96
2022-10-13T16:15:35.163Z,16.96
2022-10-13T16:18:02.410Z,16.94
2022-10-13T16:20:34.532Z,16.94
2022-10-13T16:23:01.878Z,16.93
2022-10-13T16:25:29.575Z,16.95
2022-10-13T16:27:56.739Z,16.94
2022-10-13T16:30:23.650Z,16.93
2022-10-13T16:32:50.620Z,16.93
2022-10-13T16:35:17.701Z,16.93
2022-10-13T16:37:44.682Z,16.91
2022-10-13T16:40:11.791Z,16.91
2022-10-13T16:42:38.875Z,16.89
2022-10-13T16:45:06.686Z,16.88
2022-10-13T16:47:33.681Z,16.89
2022-10-13T16:50:00.688Z,16.87
2022-10-13T16:53:01.996Z,16.86
2022-10-13T16:55:29.209Z,16.85
2022-10-13T16:57:56.181Z,16.84
2022-10-13T17:00:23.228Z,16.84
2022-10-13T17:02:50.211Z,16.84
2022-10-13T17:05:17.244Z,16.83
2022-10-13T17:07:44.192Z,16.84
2022-10-13T17:10:11.173Z,16.82
2022-10-13T17:12:38.156Z,16.81
2022-10-13T17:15:05.341Z,16.82
2022-10-13T17:17:32.294Z,16.81
2022-10-13T17:19:59.241Z,16.81
2022-10-13T17:22:26.199Z,16.80
2022-10-13T17:24:53.180Z,16.79
2022-10-13T17:27:20.433Z,16.78
2022-10-13T17:29:47.689Z,16.77
2022-10-13T17:32:14.696Z,16.76
2022-10-13T17:34:41.643Z,16.76
2022-10-13T17:37:08.837Z,16.75
2022-10-13T17:39:35.804Z,16.75
2022-10-13T17:42:02.801Z,16.73
2022-10-13T17:44:29.886Z,16.73
2022-10-13T17:46:56.879Z,16.75
2022-10-13T17:49:23.899Z,16.73
2022-10-13T17:51:52.909Z,16.73
2022-10-13T17:54:20.194Z,16.72
2022-10-13T17:56:48.079Z,16.73
2022-10-13T17:59:16.692Z,16.72
2022-10-13T18:01:43.959Z,16.73
2022-10-13T18:04:12.418Z,16.72
2022-10-13T18:06:40.824Z,16.73
2022-10-13T18:09:18.097Z,16.74
2022-10-13T18:11:49.751Z,16.74
2022-10-13T18:14:21.250Z,16.75
2022-10-13T18:16:49.041Z,16.75
2022-10-13T18:19:16.167Z,16.76
2022-10-13T18:21:43.132Z,16.75
2022-10-13T18:24:10.286Z,16.74
2022-10-13T18:26:37.308Z,16.75
2022-10-13T18:29:05.188Z,16.75
2022-10-13T18:31:34.012Z,16.74
2022-10-13T18:34:02.742Z,16.75
2022-10-13T18:36:31.535Z,16.74
2022-10-13T18:39:04.114Z,16.74
2022-10-13T18:41:31.507Z,16.74
2022-10-13T18:43:58.474Z,16.74
2022-10-13T18:46:25.523Z,16.74
2022-10-13T18:48:52.514Z,16.73
2022-10-13T18:51:19.757Z,16.73
2022-10-13T18:53:47.820Z,16.73
2022-10-13T18:56:19.613Z,16.73
2022-10-13T18:58:46.817Z,16.72
2022-10-13T19:01:19.817Z,16.73
2022-10-13T19:03:47.381Z,16.73
2022-10-13T19:06:15.050Z,16.72
2022-10-13T19:08:42.975Z,16.71
2022-10-13T19:11:21.787Z,16.71
2022-10-13T19:13:49.064Z,16.70
2022-10-13T19:16:18.891Z,16.70
2022-10-13T19:18:46.130Z,16.69
2022-10-13T19:21:13.391Z,16.69
2022-10-13T19:23:40.449Z,16.67
2022-10-13T19:26:15.378Z,16.67
2022-10-13T19:28:43.069Z,16.68
2022-10-13T19:31:14.840Z,16.66
2022-10-13T19:33:44.710Z,16.68
2022-10-13T19:36:12.321Z,16.67
2022-10-13T19:38:39.387Z,16.67
2022-10-13T19:41:07.005Z,16.68
2022-10-13T19:43:34.332Z,16.67
2022-10-13T19:46:10.729Z,16.67
2022-10-13T19:48:37.685Z,16.68
2022-10-13T19:51:06.073Z,16.68
2022-10-13T19:53:33.552Z,16.67
2022-10-13T19:56:00.525Z,16.64
2022-10-13T19:58:27.522Z,16.63
2022-10-13T20:00:54.623Z,16.63
2022-10-13T20:03:21.648Z,16.62
2022-10-13T20:05:48.678Z,16.61
2022-10-13T20:08:16.356Z,16.61
2022-10-13T20:10:43.465Z,16.62
2022-10-13T20:13:10.930Z,16.62
2022-10-13T20:15:41.844Z,16.64
2022-10-13T20:18:10.332Z,16.65
2022-10-13T20:20:37.350Z,16.65
2022-10-13T20:23:04.328Z,16.66
2022-10-13T20:25:31.274Z,16.67
2022-10-13T20:27:58.292Z,16.66
2022-10-13T20:30:25.258Z,16.65
2022-10-13T20:32:52.231Z,16.67
2022-10-13T20:35:19.230Z,16.67
2022-10-13T20:37:46.200Z,16.66
2022-10-13T20:40:13.181Z,16.66
2022-10-13T20:42:40.188Z,16.64
2022-10-13T20:45:07.672Z,16.62
2022-10-13T20:47:34.588Z,16.62
2022-10-13T20:50:01.578Z,16.61
2022-10-13T20:52:28.567Z,16.60
2022-10-13T20:54:55.538Z,16.59
2022-10-13T20:57:22.980Z,16.56
2022-10-13T20:59:50.232Z,16.55
2022-10-13T21:02:17.337Z,16.54
2022-10-13T21:04:44.303Z,16.52
2022-10-13T21:07:11.298Z,16.52
2022-10-13T21:09:38.288Z,16.51
2022-10-13T21:12:05.370Z,16.50
2022-10-13T21:14:32.361Z,16.50
2022-10-13T21:16:59.305Z,16.50
2022-10-13T21:19:26.483Z,16.50
2022-10-13T21:21:53.464Z,16.50
2022-10-13T21:24:20.460Z,16.49
2022-10-13T21:26:47.483Z,16.49
2022-10-13T21:29:14.607Z,16.47
2022-10-13T21:31:41.594Z,16.47
2022-10-13T21:34:09.565Z,16.45
2022-10-13T21:36:36.568Z,16.44
2022-10-13T21:39:05.102Z,16.44
2022-10-13T21:41:32.118Z,16.43
2022-10-13T21:43:59.169Z,16.42
2022-10-13T21:46:27.726Z,16.42
2022-10-13T21:48:56.758Z,16.42
2022-10-13T21:51:25.418Z,16.40
2022-10-13T21:53:54.148Z,16.40
2022-10-13T21:56:21.570Z,16.39
2022-10-13T21:58:49.244Z,16.38
2022-10-13T22:01:17.205Z,16.39
2022-10-13T22:03:44.257Z,16.39
2022-10-13T22:06:18.511Z,16.38
2022-10-13T22:08:47.247Z,16.38
2022-10-13T22:11:14.650Z,16.37
2022-10-13T22:13:41.562Z,16.39
2022-10-13T22:16:10.682Z,16.39
2022-10-13T22:18:37.628Z,16.38
2022-10-13T22:21:06.257Z,16.38
2022-10-13T22:23:33.278Z,16.38
2022-10-13T22:26:00.443Z,16.37
2022-10-13T22:28:27.467Z,16.37
2022-10-13T22:30:54.520Z,16.36
2022-10-13T22:33:21.547Z,16.36
2022-10-13T22:35:48.598Z,16.35
2022-10-13T22:38:15.769Z,16.34
2022-10-13T22:40:42.736Z,16.34
2022-10-13T22:43:09.714Z,16.35
2022-10-13T22:45:36.767Z,16.34
2022-10-13T22:48:03.957Z,16.34
2022-10-13T22:50:30.948Z,16.33
2022-10-13T22:52:57.974Z,16.33
2022-10-13T22:55:24.904Z,16.34
2022-10-13T22:57:51.838Z,16.34
2022-10-13T23:00:18.892Z,16.35
2022-10-13T23:02:45.848Z,16.35
2022-10-13T23:05:12.776Z,16.36
2022-10-13T23:07:39.748Z,16.36
2022-10-13T23:10:07.227Z,16.35
2022-10-13T23:12:34.226Z,16.37
2022-10-13T23:15:01.300Z,16.36
2022-10-13T23:17:28.322Z,16.36
2022-10-13T23:19:55.275Z,16.34
2022-10-13T23:22:22.266Z,16.35
2022-10-13T23:24:49.255Z,16.34
2022-10-13T23:27:16.261Z,16.34
2022-10-13T23:29:43.190Z,16.33
2022-10-13T23:32:10.186Z,16.33
2022-10-13T23:34:37.171Z,16.31
2022-10-13T23:37:04.151Z,16.32
2022-10-13T23:39:31.409Z,16.31
2022-10-13T23:41:58.470Z,16.30
2022-10-13T23:44:25.576Z,16.30
2022-10-13T23:46:52.564Z,16.30
2022-10-13T23:49:19.543Z,16.31
2022-10-13T23:51:46.544Z,16.30
2022-10-13T23:54:13.619Z,16.31
2022-10-13T23:56:40.653Z,16.31
2022-10-13T23:59:07.662Z,16.31
